sensor_id;sensor_type;location;lat;lon;timestamp;noise_LAeq;noise_LA_min;noise_LA_max;noise_LA01;noise_LA95
4048;Laerm;2038;51.728;6.674;2023-01-15T00:01:25;43.14;38.21;58.47;;
4048;Laerm;2038;51.728;6.674;2023-01-15T00:03:54;45.11;38.81;59.12;;
4048;Laerm;2038;51.728;6.674;2023-01-15T00:06:23;41.59;39.08;45.57;;
4048;Laerm;2038;51.728;6.674;2023-01-15T00:08:51;42.20;39.08;51.44;;
4048;Laerm;2038;51.728;6.674;2023-01-15T00:11:18;42.80;39.34;57.04;;
4048;Laerm;2038;51.728;6.674;2023-01-15T00:13:45;43.20;39.46;56.26;;
4048;Laerm;2038;51.728;6.674;2023-01-15T00:16:22;42.33;39.46;50.36;;
4048;Laerm;2038;51.728;6.674;2023-01-15T00:18:54;42.04;39.70;46.93;;
4048;Laerm;2038;51.728;6.674;2023-01-15T00:21:22;42.18;39.70;47.00;;
4048;Laerm;2038;51.728;6.674;2023-01-15T00:23:49;43.36;39.58;55.99;;
4048;Laerm;2038;51.728;6.674;2023-01-15T00:26:36;42.10;39.70;47.68;;
4048;Laerm;2038;51.728;6.674;2023-01-15T00:29:22;44.21;39.58;58.99;;
4048;Laerm;2038;51.728;6.674;2023-01-15T00:32:02;44.43;40.43;55.61;;
4048;Laerm;2038;51.728;6.674;2023-01-15T00:34:29;43.04;39.58;56.88;;
4048;Laerm;2038;51.728;6.674;2023-01-15T00:36:56;44.21;40.03;57.76;;
4048;Laerm;2038;51.728;6.674;2023-01-15T00:39:23;44.53;40.23;57.24;;
4048;Laerm;2038;51.728;6.674;2023-01-15T00:41:50;43.47;39.46;54.38;;
4048;Laerm;2038;51.728;6.674;2023-01-15T00:44:16;44.65;39.58;57.48;;
4048;Laerm;2038;51.728;6.674;2023-01-15T00:46:43;42.94;39.21;53.50;;
4048;Laerm;2038;51.728;6.674;2023-01-15T00:49:10;43.68;39.46;57.28;;
4048;Laerm;2038;51.728;6.674;2023-01-15T00:51:37;42.98;39.08;57.01;;
4048;Laerm;2038;51.728;6.674;2023-01-15T00:54:04;42.92;39.46;56.04;;
4048;Laerm;2038;51.728;6.674;2023-01-15T00:56:30;42.38;39.08;55.97;;
4048;Laerm;2038;51.728;6.674;2023-01-15T00:58:57;44.32;39.70;57.08;;
4048;Laerm;2038;51.728;6.674;2023-01-15T01:01:23;42.97;39.46;56.09;;
4048;Laerm;2038;51.728;6.674;2023-01-15T01:03:50;42.26;39.81;48.29;;
4048;Laerm;2038;51.728;6.674;2023-01-15T01:06:19;43.44;39.81;55.65;;
4048;Laerm;2038;51.728;6.674;2023-01-15T01:08:46;44.15;39.46;59.51;;
4048;Laerm;2038;51.728;6.674;2023-01-15T01:11:16;42.44;39.70;48.83;;
4048;Laerm;2038;51.728;6.674;2023-01-15T01:13:44;42.42;39.46;51.32;;
4048;Laerm;2038;51.728;6.674;2023-01-15T01:16:33;42.55;39.92;51.22;;
4048;Laerm;2038;51.728;6.674;2023-01-15T01:19:07;42.38;39.68;48.64;;
4048;Laerm;2038;51.728;6.674;2023-01-15T01:21:37;42.40;39.46;50.56;;
4048;Laerm;2038;51.728;6.674;2023-01-15T01:24:05;45.71;39.46;59.22;;
4048;Laerm;2038;51.728;6.674;2023-01-15T01:26:32;42.62;39.81;50.11;;
4048;Laerm;2038;51.728;6.674;2023-01-15T01:28:58;42.25;39.46;47.57;;
4048;Laerm;2038;51.728;6.674;2023-01-15T01:31:25;41.79;38.99;44.27;;
4048;Laerm;2038;51.728;6.674;2023-01-15T01:33:55;42.70;39.46;55.22;;
4048;Laerm;2038;51.728;6.674;2023-01-15T01:36:31;41.91;39.58;51.83;;
4048;Laerm;2038;51.728;6.674;2023-01-15T01:38:58;41.94;39.35;46.58;;
4048;Laerm;2038;51.728;6.674;2023-01-15T01:41:26;42.42;39.21;56.67;;
4048;Laerm;2038;51.728;6.674;2023-01-15T01:44:02;44.62;39.81;58.94;;
4048;Laerm;2038;51.728;6.674;2023-01-15T01:46:33;43.55;38.81;55.72;;
4048;Laerm;2038;51.728;6.674;2023-01-15T01:49:12;41.82;39.08;47.24;;
4048;Laerm;2038;51.728;6.674;2023-01-15T01:52:02;41.74;39.08;47.10;;
4048;Laerm;2038;51.728;6.674;2023-01-15T01:54:32;41.60;38.81;46.23;;
4048;Laerm;2038;51.728;6.674;2023-01-15T01:57:01;42.57;39.34;54.80;;
4048;Laerm;2038;51.728;6.674;2023-01-15T01:59:29;42.72;39.46;53.23;;
4048;Laerm;2038;51.728;6.674;2023-01-15T02:01:56;41.73;38.95;47.02;;
4048;Laerm;2038;51.728;6.674;2023-01-15T02:04:26;42.24;39.08;51.81;;
4048;Laerm;2038;51.728;6.674;2023-01-15T02:06:54;42.23;38.99;54.69;;
4048;Laerm;2038;51.728;6.674;2023-01-15T02:09:20;42.59;39.08;55.84;;
4048;Laerm;2038;51.728;6.674;2023-01-15T02:11:49;41.88;38.95;49.33;;
4048;Laerm;2038;51.728;6.674;2023-01-15T02:15:04;42.13;38.81;51.95;;
4048;Laerm;2038;51.728;6.674;2023-01-15T02:17:55;41.82;38.05;49.71;;
4048;Laerm;2038;51.728;6.674;2023-01-15T02:21:03;42.17;39.21;51.26;;
4048;Laerm;2038;51.728;6.674;2023-01-15T02:24:04;41.72;38.81;46.38;;
4048;Laerm;2038;51.728;6.674;2023-01-15T02:26:59;43.51;38.95;59.30;;
4048;Laerm;2038;51.728;6.674;2023-01-15T02:30:09;42.00;38.81;49.63;;
4048;Laerm;2038;51.728;6.674;2023-01-15T02:32:52;42.17;38.95;53.28;;
4048;Laerm;2038;51.728;6.674;2023-01-15T02:35:31;41.66;38.21;51.38;;
4048;Laerm;2038;51.728;6.674;2023-01-15T02:38:04;43.80;38.95;60.08;;
4048;Laerm;2038;51.728;6.674;2023-01-15T02:40:34;41.56;38.81;48.49;;
4048;Laerm;2038;51.728;6.674;2023-01-15T02:43:04;43.52;39.08;56.94;;
4048;Laerm;2038;51.728;6.674;2023-01-15T02:45:36;42.76;38.52;57.72;;
4048;Laerm;2038;51.728;6.674;2023-01-15T02:48:11;44.26;38.95;61.61;;
4048;Laerm;2038;51.728;6.674;2023-01-15T02:50:43;41.70;38.81;48.28;;
4048;Laerm;2038;51.728;6.674;2023-01-15T02:53:18;42.00;39.08;50.73;;
4048;Laerm;2038;51.728;6.674;2023-01-15T02:55:49;44.43;38.95;59.85;;
4048;Laerm;2038;51.728;6.674;2023-01-15T02:58:23;41.43;38.37;47.32;;
4048;Laerm;2038;51.728;6.674;2023-01-15T03:00:53;41.64;38.81;50.38;;
4048;Laerm;2038;51.728;6.674;2023-01-15T03:06:26;45.07;38.81;60.07;;
4048;Laerm;2038;51.728;6.674;2023-01-15T03:08:57;41.18;38.52;46.55;;
4048;Laerm;2038;51.728;6.674;2023-01-15T03:11:24;41.29;38.81;44.31;;
4048;Laerm;2038;51.728;6.674;2023-01-15T03:14:04;41.48;37.52;49.11;;
4048;Laerm;2038;51.728;6.674;2023-01-15T03:16:55;41.52;38.52;47.72;;
4048;Laerm;2038;51.728;6.674;2023-01-15T03:19:52;43.25;38.21;58.43;;
4048;Laerm;2038;51.728;6.674;2023-01-15T03:22:31;41.32;38.67;47.44;;
4048;Laerm;2038;51.728;6.674;2023-01-15T03:25:25;41.46;38.67;49.33;;
4048;Laerm;2038;51.728;6.674;2023-01-15T03:27:58;41.58;38.52;50.62;;
4048;Laerm;2038;51.728;6.674;2023-01-15T03:30:26;41.99;38.81;52.57;;
4048;Laerm;2038;51.728;6.674;2023-01-15T03:32:54;41.40;38.81;48.28;;
4048;Laerm;2038;51.728;6.674;2023-01-15T03:35:48;42.07;38.21;56.32;;
4048;Laerm;2038;51.728;6.674;2023-01-15T03:38:21;41.58;38.67;49.02;;
4048;Laerm;2038;51.728;6.674;2023-01-15T03:44:06;45.72;38.02;65.37;;
4048;Laerm;2038;51.728;6.674;2023-01-15T03:46:53;41.38;38.95;45.04;;
4048;Laerm;2038;51.728;6.674;2023-01-15T03:52:35;43.09;39.34;55.99;;
4048;Laerm;2038;51.728;6.674;2023-01-15T03:55:18;41.79;38.95;50.17;;
4048;Laerm;2038;51.728;6.674;2023-01-15T04:00:36;43.48;38.67;58.77;;
4048;Laerm;2038;51.728;6.674;2023-01-15T04:03:07;41.29;39.08;49.38;;
4048;Laerm;2038;51.728;6.674;2023-01-15T04:05:36;44.07;38.21;59.57;;
4048;Laerm;2038;51.728;6.674;2023-01-15T04:08:03;43.60;39.08;59.22;;
4048;Laerm;2038;51.728;6.674;2023-01-15T04:10:33;42.48;38.95;54.04;;
4048;Laerm;2038;51.728;6.674;2023-01-15T04:12:59;42.09;38.52;49.14;;
4048;Laerm;2038;51.728;6.674;2023-01-15T04:15:25;44.22;39.21;55.47;;
4048;Laerm;2038;51.728;6.674;2023-01-15T04:17:51;43.10;39.21;54.44;;
4048;Laerm;2038;51.728;6.674;2023-01-15T04:20:18;42.19;38.81;55.05;;
4048;Laerm;2038;51.728;6.674;2023-01-15T04:22:44;41.79;38.81;50.86;;
4048;Laerm;2038;51.728;6.674;2023-01-15T04:25:10;42.48;38.81;52.27;;
4048;Laerm;2038;51.728;6.674;2023-01-15T04:27:37;42.71;38.21;58.21;;
4048;Laerm;2038;51.728;6.674;2023-01-15T04:30:03;41.31;38.37;46.93;;
4048;Laerm;2038;51.728;6.674;2023-01-15T04:32:30;42.64;38.21;56.25;;
4048;Laerm;2038;51.728;6.674;2023-01-15T04:34:56;41.14;38.52;43.94;;
4048;Laerm;2038;51.728;6.674;2023-01-15T04:37:22;43.46;38.37;60.25;;
4048;Laerm;2038;51.728;6.674;2023-01-15T04:39:49;41.78;38.67;57.14;;
4048;Laerm;2038;51.728;6.674;2023-01-15T04:42:16;41.77;38.81;46.76;;
4048;Laerm;2038;51.728;6.674;2023-01-15T04:45:01;41.43;38.37;49.49;;
4048;Laerm;2038;51.728;6.674;2023-01-15T04:47:30;42.92;38.81;57.43;;
4048;Laerm;2038;51.728;6.674;2023-01-15T04:49:56;42.02;39.21;56.12;;
4048;Laerm;2038;51.728;6.674;2023-01-15T04:52:22;41.53;38.81;45.45;;
4048;Laerm;2038;51.728;6.674;2023-01-15T04:54:48;41.38;38.67;46.50;;
4048;Laerm;2038;51.728;6.674;2023-01-15T04:57:14;43.61;38.67;56.85;;
4048;Laerm;2038;51.728;6.674;2023-01-15T04:59:41;45.86;38.21;64.19;;
4048;Laerm;2038;51.728;6.674;2023-01-15T05:02:07;43.46;39.21;58.72;;
4048;Laerm;2038;51.728;6.674;2023-01-15T05:04:34;43.24;38.95;59.44;;
4048;Laerm;2038;51.728;6.674;2023-01-15T05:07:03;42.34;39.21;56.48;;
4048;Laerm;2038;51.728;6.674;2023-01-15T05:09:30;41.32;38.95;45.54;;
4048;Laerm;2038;51.728;6.674;2023-01-15T05:11:56;41.73;39.21;44.51;;
4048;Laerm;2038;51.728;6.674;2023-01-15T05:14:22;41.37;38.67;44.43;;
4048;Laerm;2038;51.728;6.674;2023-01-15T05:16:49;41.55;38.81;46.13;;
4048;Laerm;2038;51.728;6.674;2023-01-15T05:19:15;42.59;38.67;57.10;;
4048;Laerm;2038;51.728;6.674;2023-01-15T05:21:43;42.36;38.21;53.07;;
4048;Laerm;2038;51.728;6.674;2023-01-15T05:24:15;44.02;38.67;59.39;;
4048;Laerm;2038;51.728;6.674;2023-01-15T05:26:42;42.00;38.95;50.80;;
4048;Laerm;2038;51.728;6.674;2023-01-15T05:29:10;41.45;38.67;49.27;;
4048;Laerm;2038;51.728;6.674;2023-01-15T05:31:37;42.79;38.81;55.01;;
4048;Laerm;2038;51.728;6.674;2023-01-15T05:34:04;41.86;38.37;51.01;;
4048;Laerm;2038;51.728;6.674;2023-01-15T05:36:30;41.16;38.37;44.51;;
4048;Laerm;2038;51.728;6.674;2023-01-15T05:38:58;42.13;38.37;53.74;;
4048;Laerm;2038;51.728;6.674;2023-01-15T05:41:27;44.97;38.37;61.98;;
4048;Laerm;2038;51.728;6.674;2023-01-15T05:44:14;43.81;39.46;55.35;;
4048;Laerm;2038;51.728;6.674;2023-01-15T05:46:43;42.70;38.21;56.81;;
4048;Laerm;2038;51.728;6.674;2023-01-15T05:49:19;44.73;38.05;60.20;;
4048;Laerm;2038;51.728;6.674;2023-01-15T05:51:46;42.60;37.12;54.69;;
4048;Laerm;2038;51.728;6.674;2023-01-15T05:54:16;42.90;39.08;58.08;;
4048;Laerm;2038;51.728;6.674;2023-01-15T05:56:44;42.09;39.08;52.90;;
4048;Laerm;2038;51.728;6.674;2023-01-15T05:59:11;44.09;39.46;58.95;;
4048;Laerm;2038;51.728;6.674;2023-01-15T06:01:38;43.64;38.81;55.47;;
4048;Laerm;2038;51.728;6.674;2023-01-15T06:04:06;43.51;38.99;54.66;;
4048;Laerm;2038;51.728;6.674;2023-01-15T06:06:33;45.84;38.95;59.53;;
4048;Laerm;2038;51.728;6.674;2023-01-15T06:09:01;42.93;38.67;56.39;;
4048;Laerm;2038;51.728;6.674;2023-01-15T06:11:27;44.46;39.08;55.15;;
4048;Laerm;2038;51.728;6.674;2023-01-15T06:13:53;43.56;39.21;57.78;;
4048;Laerm;2038;51.728;6.674;2023-01-15T06:16:20;44.82;39.08;58.48;;
4048;Laerm;2038;51.728;6.674;2023-01-15T06:18:46;43.68;38.37;52.80;;
4048;Laerm;2038;51.728;6.674;2023-01-15T06:21:13;47.20;39.08;64.95;;
4048;Laerm;2038;51.728;6.674;2023-01-15T06:23:41;45.55;38.67;59.77;;
4048;Laerm;2038;51.728;6.674;2023-01-15T06:26:15;46.01;38.52;60.05;;
4048;Laerm;2038;51.728;6.674;2023-01-15T06:28:43;42.87;38.81;54.07;;
4048;Laerm;2038;51.728;6.674;2023-01-15T06:31:13;43.29;38.37;52.70;;
4048;Laerm;2038;51.728;6.674;2023-01-15T06:33:40;42.62;38.21;52.83;;
4048;Laerm;2038;51.728;6.674;2023-01-15T06:36:16;42.68;39.08;55.59;;
4048;Laerm;2038;51.728;6.674;2023-01-15T06:38:43;42.17;38.05;55.91;;
4048;Laerm;2038;51.728;6.674;2023-01-15T06:41:19;42.19;38.67;49.92;;
4048;Laerm;2038;51.728;6.674;2023-01-15T06:44:05;42.80;38.67;51.88;;
4048;Laerm;2038;51.728;6.674;2023-01-15T06:46:50;45.03;39.46;59.28;;
4048;Laerm;2038;51.728;6.674;2023-01-15T06:49:36;43.17;38.52;57.51;;
4048;Laerm;2038;51.728;6.674;2023-01-15T06:52:04;42.69;38.81;55.88;;
4048;Laerm;2038;51.728;6.674;2023-01-15T06:54:31;43.06;38.81;55.64;;
4048;Laerm;2038;51.728;6.674;2023-01-15T06:56:58;45.37;38.21;69.20;;
4048;Laerm;2038;51.728;6.674;2023-01-15T06:59:24;43.05;39.21;51.55;;
4048;Laerm;2038;51.728;6.674;2023-01-15T07:01:50;41.52;37.70;52.10;;
4048;Laerm;2038;51.728;6.674;2023-01-15T07:04:16;45.99;39.70;59.29;;
4048;Laerm;2038;51.728;6.674;2023-01-15T07:06:42;43.54;39.08;54.50;;
4048;Laerm;2038;51.728;6.674;2023-01-15T07:09:09;42.51;38.81;54.48;;
4048;Laerm;2038;51.728;6.674;2023-01-15T07:11:35;43.54;38.21;55.60;;
4048;Laerm;2038;51.728;6.674;2023-01-15T07:14:21;42.75;38.47;51.01;;
4048;Laerm;2038;51.728;6.674;2023-01-15T07:16:49;44.77;39.58;55.09;;
4048;Laerm;2038;51.728;6.674;2023-01-15T07:19:16;43.27;39.21;52.52;;
4048;Laerm;2038;51.728;6.674;2023-01-15T07:21:42;43.17;38.95;55.50;;
4048;Laerm;2038;51.728;6.674;2023-01-15T07:24:13;47.19;40.80;61.01;;
4048;Laerm;2038;51.728;6.674;2023-01-15T07:26:41;45.84;40.23;56.31;;
4048;Laerm;2038;51.728;6.674;2023-01-15T07:29:07;45.74;39.81;58.28;;
4048;Laerm;2038;51.728;6.674;2023-01-15T07:31:34;45.68;39.70;56.24;;
4048;Laerm;2038;51.728;6.674;2023-01-15T07:34:01;44.77;39.70;55.82;;
4048;Laerm;2038;51.728;6.674;2023-01-15T07:36:28;47.23;38.67;62.59;;
4048;Laerm;2038;51.728;6.674;2023-01-15T07:38:54;49.21;40.03;65.74;;
4048;Laerm;2038;51.728;6.674;2023-01-15T07:41:21;49.70;39.92;71.50;;
4048;Laerm;2038;51.728;6.674;2023-01-15T07:44:08;46.22;38.05;67.21;;
4048;Laerm;2038;51.728;6.674;2023-01-15T07:46:54;46.46;40.13;61.41;;
4048;Laerm;2038;51.728;6.674;2023-01-15T07:49:41;47.61;39.81;63.03;;
4048;Laerm;2038;51.728;6.674;2023-01-15T07:52:19;45.67;39.99;57.54;;
4048;Laerm;2038;51.728;6.674;2023-01-15T07:54:48;46.61;41.14;57.97;;
4048;Laerm;2038;51.728;6.674;2023-01-15T07:57:19;47.31;40.80;59.81;;
4048;Laerm;2038;51.728;6.674;2023-01-15T07:59:47;48.27;39.70;67.72;;
4048;Laerm;2038;51.728;6.674;2023-01-15T08:02:13;46.08;39.58;56.59;;
4048;Laerm;2038;51.728;6.674;2023-01-15T08:04:40;45.18;40.33;58.96;;
4048;Laerm;2038;51.728;6.674;2023-01-15T08:07:07;48.72;39.78;66.37;;
4048;Laerm;2038;51.728;6.674;2023-01-15T08:09:33;45.87;40.43;60.14;;
4048;Laerm;2038;51.728;6.674;2023-01-15T08:12:01;47.17;39.89;63.48;;
4048;Laerm;2038;51.728;6.674;2023-01-15T08:14:46;47.39;40.43;65.60;;
4048;Laerm;2038;51.728;6.674;2023-01-15T08:17:36;46.84;41.30;58.70;;
4048;Laerm;2038;51.728;6.674;2023-01-15T08:20:05;46.80;40.23;59.82;;
4048;Laerm;2038;51.728;6.674;2023-01-15T08:22:32;49.24;40.62;59.36;;
4048;Laerm;2038;51.728;6.674;2023-01-15T08:24:58;46.20;41.46;61.40;;
4048;Laerm;2038;51.728;6.674;2023-01-15T08:27:25;46.73;39.34;59.09;;
4048;Laerm;2038;51.728;6.674;2023-01-15T08:29:52;45.45;39.81;58.08;;
4048;Laerm;2038;51.728;6.674;2023-01-15T08:32:18;44.88;40.03;62.58;;
4048;Laerm;2038;51.728;6.674;2023-01-15T08:34:44;45.22;40.13;62.81;;
4048;Laerm;2038;51.728;6.674;2023-01-15T08:37:11;43.42;38.95;56.16;;
4048;Laerm;2038;51.728;6.674;2023-01-15T08:39:37;48.41;41.46;64.29;;
4048;Laerm;2038;51.728;6.674;2023-01-15T08:42:03;45.86;39.21;58.11;;
4048;Laerm;2038;51.728;6.674;2023-01-15T08:44:30;48.64;40.33;61.27;;
4048;Laerm;2038;51.728;6.674;2023-01-15T08:46:56;49.23;41.82;60.99;;
4048;Laerm;2038;51.728;6.674;2023-01-15T08:49:22;46.89;39.34;56.65;;
4048;Laerm;2038;51.728;6.674;2023-01-15T08:51:48;48.85;39.78;68.05;;
4048;Laerm;2038;51.728;6.674;2023-01-15T08:54:21;49.96;41.68;59.07;;
4048;Laerm;2038;51.728;6.674;2023-01-15T08:56:49;47.73;40.53;61.83;;
4048;Laerm;2038;51.728;6.674;2023-01-15T08:59:16;50.56;41.75;62.16;;
4048;Laerm;2038;51.728;6.674;2023-01-15T09:01:42;48.16;42.03;58.52;;
4048;Laerm;2038;51.728;6.674;2023-01-15T09:04:17;49.72;40.33;62.59;;
4048;Laerm;2038;51.728;6.674;2023-01-15T09:06:46;48.10;39.81;60.62;;
4048;Laerm;2038;51.728;6.674;2023-01-15T09:09:13;49.78;41.75;61.83;;
4048;Laerm;2038;51.728;6.674;2023-01-15T09:11:40;50.12;40.33;63.64;;
4048;Laerm;2038;51.728;6.674;2023-01-15T09:14:08;48.05;41.06;62.08;;
4048;Laerm;2038;51.728;6.674;2023-01-15T09:16:36;51.45;41.96;63.70;;
4048;Laerm;2038;51.728;6.674;2023-01-15T09:19:05;49.66;42.16;61.03;;
4048;Laerm;2038;51.728;6.674;2023-01-15T09:21:32;48.61;41.46;63.79;;
4048;Laerm;2038;51.728;6.674;2023-01-15T09:23:59;52.38;40.80;66.24;;
4048;Laerm;2038;51.728;6.674;2023-01-15T09:26:36;52.00;42.98;61.68;;
4048;Laerm;2038;51.728;6.674;2023-01-15T09:29:05;50.09;42.47;66.27;;
4048;Laerm;2038;51.728;6.674;2023-01-15T09:31:32;46.18;40.80;59.46;;
4048;Laerm;2038;51.728;6.674;2023-01-15T09:33:58;51.78;40.98;67.83;;
4048;Laerm;2038;51.728;6.674;2023-01-15T09:36:29;48.91;40.62;60.80;;
4048;Laerm;2038;51.728;6.674;2023-01-15T09:38:57;52.40;42.59;66.21;;
4048;Laerm;2038;51.728;6.674;2023-01-15T09:41:26;47.80;42.03;60.42;;
4048;Laerm;2038;51.728;6.674;2023-01-15T09:45:03;47.30;41.11;59.15;;
4048;Laerm;2038;51.728;6.674;2023-01-15T09:47:49;54.41;42.41;67.10;;
4048;Laerm;2038;51.728;6.674;2023-01-15T09:50:58;53.54;41.22;66.30;;
4048;Laerm;2038;51.728;6.674;2023-01-15T09:56:23;49.25;41.82;60.92;;
4048;Laerm;2038;51.728;6.674;2023-01-15T09:58:53;50.36;42.59;60.72;;
4048;Laerm;2038;51.728;6.674;2023-01-15T10:01:29;50.04;41.30;59.64;;
4048;Laerm;2038;51.728;6.674;2023-01-15T10:04:28;54.88;42.03;68.23;;
4048;Laerm;2038;51.728;6.674;2023-01-15T10:09:39;51.12;42.53;66.87;;
4048;Laerm;2038;51.728;6.674;2023-01-15T10:12:24;54.61;44.76;65.68;;
4048;Laerm;2038;51.728;6.674;2023-01-15T10:15:30;51.30;42.53;61.70;;
4048;Laerm;2038;51.728;6.674;2023-01-15T10:18:00;53.55;41.82;65.63;;
4048;Laerm;2038;51.728;6.674;2023-01-15T10:20:48;53.31;42.47;68.09;;
4048;Laerm;2038;51.728;6.674;2023-01-15T10:28:59;51.19;42.35;63.92;;
4048;Laerm;2038;51.728;6.674;2023-01-15T10:31:53;50.52;40.23;62.82;;
4048;Laerm;2038;51.728;6.674;2023-01-15T10:34:38;48.83;41.14;59.09;;
4048;Laerm;2038;51.728;6.674;2023-01-15T10:43:12;51.65;43.58;61.21;;
4048;Laerm;2038;51.728;6.674;2023-01-15T10:46:09;52.65;41.53;66.48;;
4048;Laerm;2038;51.728;6.674;2023-01-15T10:48:53;48.61;41.82;59.11;;
4048;Laerm;2038;51.728;6.674;2023-01-15T10:51:41;48.08;41.46;59.89;;
4048;Laerm;2038;51.728;6.674;2023-01-15T10:54:34;53.57;42.22;61.97;;
4048;Laerm;2038;51.728;6.674;2023-01-15T10:57:14;52.47;42.24;62.08;;
4048;Laerm;2038;51.728;6.674;2023-01-15T10:59:58;55.43;44.16;67.87;;
4048;Laerm;2038;51.728;6.674;2023-01-15T11:02:40;54.75;44.43;64.20;;
4048;Laerm;2038;51.728;6.674;2023-01-15T11:05:19;57.31;44.58;74.53;;
4048;Laerm;2038;51.728;6.674;2023-01-15T11:07:52;57.45;46.89;68.97;;
4048;Laerm;2038;51.728;6.674;2023-01-15T11:10:21;56.84;46.76;64.97;;
4048;Laerm;2038;51.728;6.674;2023-01-15T11:12:58;49.91;41.96;60.29;;
4048;Laerm;2038;51.728;6.674;2023-01-15T11:15:50;55.32;43.81;66.47;;
4048;Laerm;2038;51.728;6.674;2023-01-15T11:18:42;56.47;41.96;71.55;;
4048;Laerm;2038;51.728;6.674;2023-01-15T11:21:28;57.98;43.29;74.05;;
4048;Laerm;2038;51.728;6.674;2023-01-15T11:23:58;52.77;42.47;69.20;;
4048;Laerm;2038;51.728;6.674;2023-01-15T11:26:28;54.24;42.53;63.20;;
4048;Laerm;2038;51.728;6.674;2023-01-15T11:28:57;52.53;42.65;62.98;;
4048;Laerm;2038;51.728;6.674;2023-01-15T11:31:37;51.80;42.47;59.52;;
4048;Laerm;2038;51.728;6.674;2023-01-15T11:34:17;50.93;42.29;68.24;;
4048;Laerm;2038;51.728;6.674;2023-01-15T11:36:44;52.11;43.24;61.11;;
4048;Laerm;2038;51.728;6.674;2023-01-15T11:39:23;52.30;43.44;66.00;;
4048;Laerm;2038;51.728;6.674;2023-01-15T11:41:59;49.30;42.16;60.15;;
4048;Laerm;2038;51.728;6.674;2023-01-15T11:44:56;50.82;40.89;61.09;;
4048;Laerm;2038;51.728;6.674;2023-01-15T11:47:54;46.70;41.68;59.94;;
4048;Laerm;2038;51.728;6.674;2023-01-15T11:51:11;51.67;41.61;67.08;;
4048;Laerm;2038;51.728;6.674;2023-01-15T11:56:16;53.64;44.97;62.66;;
4048;Laerm;2038;51.728;6.674;2023-01-15T11:58:52;55.65;44.94;67.51;;
4048;Laerm;2038;51.728;6.674;2023-01-15T12:01:29;51.35;44.27;61.58;;
4048;Laerm;2038;51.728;6.674;2023-01-15T12:06:48;57.93;46.93;70.15;;
4048;Laerm;2038;51.728;6.674;2023-01-15T12:13:05;55.77;43.58;65.89;;
4048;Laerm;2038;51.728;6.674;2023-01-15T12:21:58;52.99;45.39;64.74;;
4048;Laerm;2038;51.728;6.674;2023-01-15T12:28:11;52.93;41.96;64.90;;
4048;Laerm;2038;51.728;6.674;2023-01-15T12:33:48;55.63;44.07;66.21;;
4048;Laerm;2038;51.728;6.674;2023-01-15T12:39:44;57.53;42.35;74.75;;
4048;Laerm;2038;51.728;6.674;2023-01-15T12:42:19;55.41;43.49;70.05;;
4048;Laerm;2038;51.728;6.674;2023-01-15T12:45:14;52.45;43.58;66.76;;
4048;Laerm;2038;51.728;6.674;2023-01-15T12:50:46;54.01;44.27;62.42;;
4048;Laerm;2038;51.728;6.674;2023-01-15T12:53:40;57.35;47.84;65.17;;
4048;Laerm;2038;51.728;6.674;2023-01-15T12:56:18;53.35;43.58;63.92;;
4048;Laerm;2038;51.728;6.674;2023-01-15T13:02:00;53.79;42.16;62.06;;
4048;Laerm;2038;51.728;6.674;2023-01-15T13:07:48;52.76;45.37;67.02;;
4048;Laerm;2038;51.728;6.674;2023-01-15T13:10:25;58.52;47.88;72.20;;
4048;Laerm;2038;51.728;6.674;2023-01-15T13:13:07;53.05;42.69;67.36;;
4048;Laerm;2038;51.728;6.674;2023-01-15T13:15:48;54.22;42.41;65.89;;
4048;Laerm;2038;51.728;6.674;2023-01-15T13:21:10;50.95;42.93;59.51;;
4048;Laerm;2038;51.728;6.674;2023-01-15T13:24:10;52.22;42.71;61.16;;
4048;Laerm;2038;51.728;6.674;2023-01-15T13:27:20;53.38;44.03;65.41;;
4048;Laerm;2038;51.728;6.674;2023-01-15T13:32:45;56.15;44.58;66.70;;
4048;Laerm;2038;51.728;6.674;2023-01-15T13:35:35;58.05;49.38;66.58;;
4048;Laerm;2038;51.728;6.674;2023-01-15T13:38:12;55.90;43.39;67.94;;
4048;Laerm;2038;51.728;6.674;2023-01-15T13:40:44;54.24;43.54;70.38;;
4048;Laerm;2038;51.728;6.674;2023-01-15T13:43:46;53.91;43.34;68.11;;
4048;Laerm;2038;51.728;6.674;2023-01-15T13:46:19;50.48;42.09;67.26;;
4048;Laerm;2038;51.728;6.674;2023-01-15T13:48:49;51.82;43.81;61.05;;
4048;Laerm;2038;51.728;6.674;2023-01-15T13:51:35;53.80;43.54;69.73;;
4048;Laerm;2038;51.728;6.674;2023-01-15T13:54:12;54.78;43.14;72.84;;
4048;Laerm;2038;51.728;6.674;2023-01-15T13:56:41;52.93;43.90;65.03;;
4048;Laerm;2038;51.728;6.674;2023-01-15T13:59:37;51.68;42.29;61.18;;
4048;Laerm;2038;51.728;6.674;2023-01-15T14:02:23;52.54;42.53;63.07;;
4048;Laerm;2038;51.728;6.674;2023-01-15T14:04:50;50.81;42.65;59.29;;
4048;Laerm;2038;51.728;6.674;2023-01-15T14:07:37;49.85;42.53;60.84;;
4048;Laerm;2038;51.728;6.674;2023-01-15T14:19:01;55.77;43.09;67.05;;
4048;Laerm;2038;51.728;6.674;2023-01-15T14:22:41;55.27;44.39;67.88;;
4048;Laerm;2038;51.728;6.674;2023-01-15T14:30:37;56.27;45.42;77.23;;
4048;Laerm;2038;51.728;6.674;2023-01-15T14:36:34;54.77;43.09;76.74;;
4048;Laerm;2038;51.728;6.674;2023-01-15T14:39:08;55.88;45.63;68.69;;
4048;Laerm;2038;51.728;6.674;2023-01-15T14:41:43;56.04;45.23;66.48;;
4048;Laerm;2038;51.728;6.674;2023-01-15T14:44:32;51.19;43.54;61.66;;
4048;Laerm;2038;51.728;6.674;2023-01-15T14:47:02;51.27;42.98;65.70;;
4048;Laerm;2038;51.728;6.674;2023-01-15T14:49:43;51.33;43.29;66.40;;
4048;Laerm;2038;51.728;6.674;2023-01-15T14:52:22;51.05;43.68;62.91;;
4048;Laerm;2038;51.728;6.674;2023-01-15T14:54:49;49.98;43.28;58.49;;
4048;Laerm;2038;51.728;6.674;2023-01-15T14:57:17;49.46;42.09;60.95;;
4048;Laerm;2038;51.728;6.674;2023-01-15T14:59:52;49.90;41.89;62.46;;
4048;Laerm;2038;51.728;6.674;2023-01-15T15:02:36;47.95;40.80;60.59;;
4048;Laerm;2038;51.728;6.674;2023-01-15T15:05:12;50.75;39.11;62.55;;
4048;Laerm;2038;51.728;6.674;2023-01-15T15:07:44;53.44;44.47;66.57;;
4048;Laerm;2038;51.728;6.674;2023-01-15T15:10:21;53.46;44.58;61.84;;
4048;Laerm;2038;51.728;6.674;2023-01-15T15:13:21;51.89;42.03;63.83;;
4048;Laerm;2038;51.728;6.674;2023-01-15T15:16:24;48.87;41.82;57.32;;
4048;Laerm;2038;51.728;6.674;2023-01-15T15:19:12;52.17;43.39;70.40;;
4048;Laerm;2038;51.728;6.674;2023-01-15T15:21:45;53.10;42.41;63.23;;
4048;Laerm;2038;51.728;6.674;2023-01-15T15:24:35;52.76;42.93;63.68;;
4048;Laerm;2038;51.728;6.674;2023-01-15T15:27:31;54.73;42.98;80.54;;
4048;Laerm;2038;51.728;6.674;2023-01-15T15:30:06;53.18;45.27;60.51;;
4048;Laerm;2038;51.728;6.674;2023-01-15T15:32:33;49.60;40.80;58.50;;
4048;Laerm;2038;51.728;6.674;2023-01-15T15:35:21;47.06;40.62;61.04;;
4048;Laerm;2038;51.728;6.674;2023-01-15T15:37:49;48.66;41.61;63.81;;
4048;Laerm;2038;51.728;6.674;2023-01-15T15:40:19;46.09;41.06;57.45;;
4048;Laerm;2038;51.728;6.674;2023-01-15T15:43:05;49.23;39.21;58.23;;
4048;Laerm;2038;51.728;6.674;2023-01-15T15:45:55;50.17;42.41;60.52;;
4048;Laerm;2038;51.728;6.674;2023-01-15T15:48:42;51.69;42.59;61.03;;
4048;Laerm;2038;51.728;6.674;2023-01-15T15:51:56;50.28;41.46;61.72;;
4048;Laerm;2038;51.728;6.674;2023-01-15T15:54:26;49.25;42.53;61.11;;
4048;Laerm;2038;51.728;6.674;2023-01-15T15:57:05;50.56;42.16;60.34;;
4048;Laerm;2038;51.728;6.674;2023-01-15T15:59:37;50.32;41.89;60.75;;
4048;Laerm;2038;51.728;6.674;2023-01-15T16:02:33;47.41;41.30;59.81;;
4048;Laerm;2038;51.728;6.674;2023-01-15T16:05:22;47.31;40.71;60.95;;
4048;Laerm;2038;51.728;6.674;2023-01-15T16:07:50;53.13;42.82;64.51;;
4048;Laerm;2038;51.728;6.674;2023-01-15T16:10:28;47.65;41.46;58.14;;
4048;Laerm;2038;51.728;6.674;2023-01-15T16:13:02;52.04;43.46;62.24;;
4048;Laerm;2038;51.728;6.674;2023-01-15T16:15:40;52.32;40.88;62.83;;
4048;Laerm;2038;51.728;6.674;2023-01-15T16:18:23;49.56;41.89;59.05;;
4048;Laerm;2038;51.728;6.674;2023-01-15T16:20:49;55.33;41.96;68.20;;